createdAt,value
2023-03-24T00:00:07.239Z,9.50
2023-03-24T00:02:34.223Z,9.60
2023-03-24T00:05:01.167Z,9.60
2023-03-24T00:07:28.102Z,9.60
2023-03-24T00:09:55.069Z,9.60
2023-03-24T00:12:22.193Z,9.60
2023-03-24T00:14:49.043Z,9.60
2023-03-24T00:17:15.903Z,9.60
2023-03-24T00:19:42.885Z,9.60
2023-03-24T00:22:11.462Z,9.60
2023-03-24T00:24:38.319Z,9.70
2023-03-24T00:27:05.209Z,9.70
2023-03-24T00:29:32.069Z,9.60
2023-03-24T00:31:59.180Z,9.60
2023-03-24T00:34:26.212Z,9.60
2023-03-24T00:36:53.122Z,9.60
2023-03-24T00:39:20.823Z,9.70
2023-03-24T00:41:48.641Z,9.70
2023-03-24T00:44:17.577Z,9.70
2023-03-24T00:46:46.419Z,9.60
2023-03-24T00:49:13.577Z,9.70
2023-03-24T00:51:42.051Z,9.70
2023-03-24T00:54:11.485Z,9.70
2023-03-24T00:56:39.773Z,9.70
2023-03-24T00:59:07.238Z,9.70
2023-03-24T01:01:34.904Z,9.60
2023-03-24T01:04:02.778Z,9.60
2023-03-24T01:06:29.912Z,9.60
2023-03-24T01:08:56.824Z,9.60
2023-03-24T01:11:25.905Z,9.60
2023-03-24T01:13:53.584Z,9.50
2023-03-24T01:16:20.637Z,9.60
2023-03-24T01:18:47.655Z,9.60
2023-03-24T01:21:14.529Z,9.60
2023-03-24T01:23:41.588Z,9.60
2023-03-24T01:26:10.289Z,9.50
2023-03-24T01:28:37.791Z,9.60
2023-03-24T01:31:04.781Z,9.60
2023-03-24T01:33:31.693Z,9.60
2023-03-24T01:35:58.616Z,9.60
2023-03-24T01:38:25.555Z,9.60
2023-03-24T01:40:52.494Z,9.60
2023-03-24T01:43:25.595Z,9.60
2023-03-24T01:46:11.291Z,9.60
2023-03-24T01:48:49.152Z,9.60
2023-03-24T01:51:18.675Z,9.60
2023-03-24T01:53:59.067Z,9.60
2023-03-24T01:56:28.662Z,9.50
2023-03-24T01:59:00.918Z,9.50
2023-03-24T02:01:30.599Z,9.50
2023-03-24T02:03:59.181Z,9.50
2023-03-24T02:06:26.976Z,9.50
2023-03-24T02:08:57.143Z,9.50
2023-03-24T02:11:32.870Z,9.50
2023-03-24T02:14:00.136Z,9.50
2023-03-24T02:16:49.745Z,9.40
2023-03-24T02:19:41.526Z,9.40
2023-03-24T02:22:47.433Z,9.50
2023-03-24T02:25:48.133Z,9.50
2023-03-24T02:28:32.252Z,9.50
2023-03-24T02:31:07.822Z,9.40
2023-03-24T02:34:12.464Z,9.50
2023-03-24T02:36:57.229Z,9.50
2023-03-24T02:39:45.306Z,9.50
2023-03-24T02:42:42.492Z,9.50
2023-03-24T02:45:37.197Z,9.50
2023-03-24T02:48:19.971Z,9.50
2023-03-24T02:51:09.840Z,9.50
2023-03-24T02:53:42.543Z,9.50
2023-03-24T02:56:25.721Z,9.40
2023-03-24T02:58:59.423Z,9.40
2023-03-24T03:01:31.407Z,9.50
2023-03-24T03:04:12.668Z,9.50
2023-03-24T03:06:43.309Z,9.40
2023-03-24T03:09:14.189Z,9.50
2023-03-24T03:11:49.348Z,9.50
2023-03-24T03:14:29.608Z,9.50
2023-03-24T03:17:01.324Z,9.40
2023-03-24T03:19:45.206Z,9.50
2023-03-24T03:22:18.797Z,9.40
2023-03-24T03:24:49.989Z,9.50
2023-03-24T03:27:21.197Z,9.50
2023-03-24T03:29:58.422Z,9.50
2023-03-24T03:32:29.994Z,9.50
2023-03-24T03:35:05.391Z,9.50
2023-03-24T03:38:12.684Z,9.50
2023-03-24T03:40:49.712Z,9.50
2023-03-24T03:43:16.899Z,9.50
2023-03-24T03:45:44.332Z,9.40
2023-03-24T03:48:11.622Z,9.50
2023-03-24T03:50:38.863Z,9.50
2023-03-24T03:53:07.417Z,9.50
2023-03-24T03:55:34.782Z,9.50
2023-03-24T03:58:05.648Z,9.50
2023-03-24T04:00:33.399Z,9.50
2023-03-24T04:03:30.782Z,9.50
2023-03-24T04:06:22.422Z,9.60
2023-03-24T04:08:57.281Z,9.50
2023-03-24T04:11:51.544Z,9.50
2023-03-24T04:14:30.651Z,9.60
2023-03-24T04:17:38.719Z,9.60
2023-03-24T04:20:12.774Z,9.60
2023-03-24T04:22:48.744Z,9.60
2023-03-24T04:25:47.824Z,9.60
2023-03-24T04:28:21.939Z,9.60
2023-03-24T04:30:58.334Z,9.70
2023-03-24T04:33:46.168Z,9.60
2023-03-24T04:36:16.948Z,9.70
2023-03-24T04:38:48.431Z,9.70
2023-03-24T04:41:16.514Z,9.70
2023-03-24T04:43:44.705Z,9.70
2023-03-24T04:46:12.091Z,9.70
2023-03-24T04:48:38.996Z,9.70
2023-03-24T04:51:07.394Z,9.70
2023-03-24T04:53:34.230Z,9.70
2023-03-24T04:56:41.045Z,9.50
2023-03-24T04:59:08.002Z,9.80
2023-03-24T05:01:34.991Z,9.70
2023-03-24T05:04:01.963Z,9.70
2023-03-24T05:06:28.819Z,9.70
2023-03-24T05:08:57.006Z,9.80
2023-03-24T05:11:23.872Z,9.70
2023-03-24T05:13:51.068Z,9.70
2023-03-24T05:16:17.941Z,9.80
2023-03-24T05:18:44.829Z,9.70
2023-03-24T05:21:11.824Z,9.80
2023-03-24T05:23:38.991Z,9.80
2023-03-24T05:26:06.105Z,9.80
2023-03-24T05:28:33.455Z,9.80
2023-03-24T05:31:00.412Z,9.80
2023-03-24T05:33:27.492Z,9.80
2023-03-24T05:35:54.377Z,9.90
2023-03-24T05:38:21.277Z,9.90
2023-03-24T05:40:48.186Z,9.90
2023-03-24T05:43:15.428Z,10.00
2023-03-24T05:45:42.516Z,10.00
2023-03-24T05:48:09.449Z,10.00
2023-03-24T05:50:36.388Z,10.10
2023-03-24T05:53:03.302Z,10.20
2023-03-24T05:55:30.205Z,10.20
2023-03-24T05:57:57.555Z,10.20
2023-03-24T06:00:25.554Z,10.30
2023-03-24T06:02:52.546Z,10.30
2023-03-24T06:05:19.539Z,10.30
2023-03-24T06:07:46.566Z,10.30
2023-03-24T06:10:13.804Z,10.30
2023-03-24T06:12:42.281Z,10.40
2023-03-24T06:15:09.782Z,10.40
2023-03-24T06:17:37.114Z,10.40
2023-03-24T06:20:07.034Z,10.40
2023-03-24T06:22:34.634Z,10.40
2023-03-24T06:25:02.041Z,10.40
2023-03-24T06:27:28.912Z,10.40
2023-03-24T06:29:57.068Z,10.40
2023-03-24T06:32:24.603Z,10.40
2023-03-24T06:34:51.579Z,10.50
2023-03-24T06:37:19.014Z,10.50
2023-03-24T06:39:46.248Z,10.50
2023-03-24T06:42:13.427Z,10.50
2023-03-24T06:44:40.390Z,10.60
2023-03-24T06:47:07.440Z,10.60
2023-03-24T06:49:34.283Z,10.70
2023-03-24T06:52:05.296Z,10.70
2023-03-24T06:54:32.150Z,10.70
2023-03-24T06:56:59.044Z,10.80
2023-03-24T06:59:25.950Z,10.80
2023-03-24T07:01:53.215Z,10.80
2023-03-24T07:04:21.310Z,10.90
2023-03-24T07:07:04.980Z,10.90
2023-03-24T07:09:35.116Z,10.90
2023-03-24T07:12:01.996Z,10.90
2023-03-24T07:14:28.858Z,10.90
2023-03-24T07:16:55.719Z,10.90
2023-03-24T07:19:22.721Z,10.90
2023-03-24T07:21:49.622Z,10.90
2023-03-24T07:24:19.609Z,10.90
2023-03-24T07:26:46.499Z,10.90
2023-03-24T07:29:13.384Z,10.90
2023-03-24T07:31:40.259Z,11.00
2023-03-24T07:34:08.302Z,11.00
2023-03-24T07:36:35.183Z,11.00
2023-03-24T07:39:02.041Z,11.10
2023-03-24T07:41:28.919Z,11.10
2023-03-24T07:43:55.790Z,11.10
2023-03-24T07:46:22.861Z,11.10
2023-03-24T07:48:49.785Z,11.20
2023-03-24T07:51:16.711Z,11.20
2023-03-24T07:53:43.625Z,11.20
2023-03-24T07:56:10.470Z,11.20
2023-03-24T07:58:37.384Z,11.20
2023-03-24T08:01:07.536Z,11.20
2023-03-24T08:03:34.474Z,11.20
2023-03-24T08:06:01.564Z,11.20
2023-03-24T08:08:28.737Z,11.20
2023-03-24T08:10:55.586Z,11.30
2023-03-24T08:13:22.477Z,11.30
2023-03-24T08:15:49.671Z,11.40
2023-03-24T08:18:17.020Z,11.50
2023-03-24T08:20:43.835Z,11.50
2023-03-24T08:23:10.697Z,11.50
2023-03-24T08:25:37.557Z,11.50
2023-03-24T08:28:04.879Z,11.50
2023-03-24T08:30:32.285Z,11.60
2023-03-24T08:33:02.201Z,11.60
2023-03-24T08:35:32.221Z,11.70
2023-03-24T08:38:00.053Z,11.70
2023-03-24T08:40:29.471Z,11.80
2023-03-24T08:42:59.000Z,11.80
2023-03-24T08:45:28.000Z,11.70
2023-03-24T08:47:55.713Z,11.70
2023-03-24T08:50:26.464Z,11.70
2023-03-24T08:52:55.694Z,11.80
2023-03-24T08:55:24.261Z,11.80
2023-03-24T08:57:51.358Z,12.00
2023-03-24T09:00:20.003Z,12.00
2023-03-24T09:02:52.015Z,12.20
2023-03-24T09:05:24.594Z,12.80
2023-03-24T09:07:56.574Z,12.50
2023-03-24T09:10:23.402Z,12.50
2023-03-24T09:12:50.758Z,12.40
2023-03-24T09:15:17.921Z,13.20
2023-03-24T09:17:45.142Z,13.30
2023-03-24T09:20:14.763Z,13.00
2023-03-24T09:22:44.250Z,13.00
2023-03-24T09:25:14.258Z,12.80
2023-03-24T09:27:41.649Z,12.80
2023-03-24T09:30:09.755Z,12.70
2023-03-24T09:32:39.980Z,13.30
2023-03-24T09:35:07.539Z,13.10
2023-03-24T09:37:36.426Z,13.20
2023-03-24T09:40:03.608Z,12.90
2023-03-24T09:42:34.383Z,13.30
2023-03-24T09:45:08.204Z,13.70
2023-03-24T09:48:03.112Z,14.00
2023-03-24T09:50:43.263Z,14.20
2023-03-24T09:53:39.365Z,14.40
2023-03-24T09:56:17.386Z,14.10
2023-03-24T09:58:48.480Z,14.20
2023-03-24T10:01:17.016Z,14.00
2023-03-24T10:03:45.689Z,13.50
2023-03-24T10:06:25.964Z,13.40
2023-03-24T10:09:27.250Z,13.50
2023-03-24T10:12:24.765Z,13.40
2023-03-24T10:15:13.614Z,13.70
2023-03-24T10:17:56.901Z,13.90
2023-03-24T10:20:32.680Z,13.50
2023-03-24T10:23:14.259Z,13.50
2023-03-24T10:26:22.731Z,13.40
2023-03-24T10:29:20.030Z,13.50
2023-03-24T10:31:52.149Z,14.10
2023-03-24T10:34:20.287Z,13.90
2023-03-24T10:36:47.156Z,13.70
2023-03-24T10:39:22.435Z,13.70
2023-03-24T10:41:54.218Z,14.50
2023-03-24T10:44:22.153Z,14.30
2023-03-24T10:47:03.017Z,14.60
2023-03-24T10:49:30.438Z,14.90
2023-03-24T10:52:02.118Z,14.20
2023-03-24T10:54:30.624Z,14.40
2023-03-24T10:57:00.259Z,13.80
2023-03-24T10:59:31.539Z,14.20
2023-03-24T11:02:10.426Z,14.20
2023-03-24T11:04:38.881Z,14.10
2023-03-24T11:07:14.844Z,14.60
2023-03-24T11:10:04.411Z,14.70
2023-03-24T11:12:33.900Z,14.40
2023-03-24T11:18:19.757Z,13.80
2023-03-24T11:20:57.327Z,13.90
2023-03-24T11:23:32.184Z,13.60
2023-03-24T11:26:20.894Z,13.80
2023-03-24T11:28:50.544Z,14.00
2023-03-24T11:31:26.501Z,14.00
2023-03-24T11:34:18.435Z,14.10
2023-03-24T11:37:12.029Z,13.70
2023-03-24T11:39:39.100Z,13.70
2023-03-24T11:42:12.197Z,13.60
2023-03-24T11:44:39.236Z,13.70
2023-03-24T11:47:09.216Z,13.70
2023-03-24T11:49:46.847Z,13.70
2023-03-24T11:52:25.078Z,14.30
2023-03-24T11:54:52.090Z,14.80
2023-03-24T11:57:38.523Z,15.80
2023-03-24T12:00:25.844Z,16.50
2023-03-24T12:03:23.841Z,16.40
2023-03-24T12:06:11.659Z,15.90
2023-03-24T12:09:07.394Z,15.90
2023-03-24T12:12:08.221Z,17.10
2023-03-24T12:14:57.262Z,15.80
2023-03-24T12:17:30.387Z,16.70
2023-03-24T12:20:04.254Z,17.20
2023-03-24T12:22:57.182Z,17.00
2023-03-24T12:25:33.630Z,17.10
2023-03-24T12:28:03.505Z,16.50
2023-03-24T12:30:35.429Z,16.00
2023-03-24T12:33:21.006Z,15.30
2023-03-24T12:36:11.961Z,15.30
2023-03-24T12:39:02.112Z,14.90
2023-03-24T12:41:53.460Z,14.80
2023-03-24T12:44:32.345Z,15.00
2023-03-24T12:47:20.634Z,15.30
2023-03-24T12:50:25.978Z,15.40
2023-03-24T12:55:48.736Z,14.80
2023-03-24T12:58:41.250Z,15.60
2023-03-24T13:01:13.633Z,15.70
2023-03-24T13:03:45.457Z,16.00
2023-03-24T13:06:23.005Z,16.70
2023-03-24T13:09:15.739Z,17.00
2023-03-24T13:11:55.416Z,17.50
2023-03-24T13:14:27.787Z,17.70
2023-03-24T13:17:00.068Z,17.10
2023-03-24T13:19:27.506Z,17.40
2023-03-24T13:21:56.509Z,17.00
2023-03-24T13:24:24.242Z,17.70
2023-03-24T13:26:58.358Z,17.90
2023-03-24T13:29:55.235Z,17.60
2023-03-24T13:32:22.032Z,17.20
2023-03-24T13:35:45.551Z,17.50
2023-03-24T13:38:42.217Z,17.70
2023-03-24T13:41:17.400Z,17.10
2023-03-24T13:44:06.216Z,17.50
2023-03-24T13:46:36.905Z,17.60
2023-03-24T13:49:06.861Z,17.70
2023-03-24T13:51:36.563Z,18.90
2023-03-24T13:54:18.525Z,18.10
2023-03-24T13:57:01.443Z,18.30
2023-03-24T13:59:31.107Z,18.30
2023-03-24T14:02:09.976Z,17.50
2023-03-24T14:05:02.605Z,17.30
2023-03-24T14:07:46.881Z,16.80
2023-03-24T14:10:16.910Z,16.40
2023-03-24T14:12:58.569Z,16.70
2023-03-24T14:15:33.560Z,17.10
2023-03-24T14:18:35.988Z,16.80
2023-03-24T14:21:05.106Z,16.40
2023-03-24T14:23:44.802Z,16.80
2023-03-24T14:26:21.971Z,17.30
2023-03-24T14:28:51.736Z,16.90
2023-03-24T14:31:20.722Z,16.90
2023-03-24T14:33:53.632Z,17.10
2023-03-24T14:36:44.388Z,17.00
2023-03-24T14:39:21.331Z,16.70
2023-03-24T14:41:48.325Z,17.40
2023-03-24T14:44:15.200Z,17.60
2023-03-24T14:46:44.886Z,17.10
2023-03-24T14:49:26.969Z,16.70
2023-03-24T14:52:12.655Z,16.20
2023-03-24T14:54:51.877Z,16.20
2023-03-24T14:57:26.215Z,16.20
2023-03-24T15:00:06.585Z,15.90
2023-03-24T15:02:40.870Z,15.70
2023-03-24T15:05:30.146Z,15.60
2023-03-24T15:08:19.893Z,15.40
2023-03-24T15:10:54.269Z,16.50
2023-03-24T15:13:37.158Z,17.10
2023-03-24T15:16:24.602Z,17.20
2023-03-24T15:19:20.596Z,17.70
2023-03-24T15:21:48.335Z,18.10
2023-03-24T15:24:21.382Z,18.20
2023-03-24T15:27:08.503Z,17.70
2023-03-24T15:29:41.558Z,17.20
2023-03-24T15:32:18.201Z,17.50
2023-03-24T15:35:00.399Z,16.80
2023-03-24T15:37:41.259Z,17.20
2023-03-24T15:40:28.467Z,17.10
2023-03-24T15:43:00.563Z,17.40
2023-03-24T15:45:36.629Z,16.80
2023-03-24T15:48:13.394Z,16.80
2023-03-24T15:50:42.279Z,16.60
2023-03-24T15:53:15.093Z,16.40
2023-03-24T15:55:44.041Z,16.20
2023-03-24T15:58:24.848Z,15.90
2023-03-24T16:01:00.527Z,15.90
2023-03-24T16:03:30.482Z,15.90
2023-03-24T16:05:57.560Z,15.80
2023-03-24T16:08:34.491Z,15.50
2023-03-24T16:11:03.643Z,15.50
2023-03-24T16:13:30.580Z,15.30
2023-03-24T16:16:01.568Z,15.10
2023-03-24T16:18:34.282Z,14.80
2023-03-24T16:21:02.928Z,14.60
2023-03-24T16:23:31.001Z,14.60
2023-03-24T16:25:57.916Z,14.50
2023-03-24T16:28:24.798Z,14.70
2023-03-24T16:31:02.099Z,14.50
2023-03-24T16:33:29.544Z,14.40
2023-03-24T16:35:56.778Z,14.40
2023-03-24T16:38:23.880Z,14.20
2023-03-24T16:40:56.184Z,14.10
2023-03-24T16:43:23.193Z,13.80
2023-03-24T16:45:50.834Z,13.80
2023-03-24T16:48:18.103Z,13.80
2023-03-24T16:50:47.637Z,13.80
2023-03-24T16:53:14.639Z,13.80
2023-03-24T16:55:41.515Z,13.80
2023-03-24T16:58:08.694Z,13.70
2023-03-24T17:00:36.634Z,13.70
2023-03-24T17:03:04.717Z,13.60
2023-03-24T17:05:39.901Z,13.50
2023-03-24T17:08:06.893Z,13.30
2023-03-24T17:10:33.879Z,13.20
2023-03-24T17:13:00.716Z,13.20
2023-03-24T17:15:29.842Z,13.20
2023-03-24T17:17:56.904Z,13.10
2023-03-24T17:20:24.599Z,13.10
2023-03-24T17:22:54.530Z,13.00
2023-03-24T17:25:22.944Z,13.00
2023-03-24T17:27:51.531Z,12.90
2023-03-24T17:30:23.785Z,12.80
2023-03-24T17:32:50.936Z,12.70
2023-03-24T17:35:20.054Z,12.70
2023-03-24T17:37:46.957Z,12.50
2023-03-24T17:40:16.418Z,12.50
2023-03-24T17:42:46.354Z,12.40
2023-03-24T17:45:16.548Z,12.40
2023-03-24T17:47:44.030Z,12.30
2023-03-24T17:50:11.231Z,12.20
2023-03-24T17:52:45.660Z,12.10
2023-03-24T17:55:14.431Z,12.00
2023-03-24T17:57:41.632Z,11.90
2023-03-24T18:00:09.608Z,11.90
2023-03-24T18:02:36.497Z,11.80
2023-03-24T18:05:03.701Z,11.80
2023-03-24T18:07:30.579Z,11.70
2023-03-24T18:09:57.471Z,11.70
2023-03-24T18:12:24.889Z,11.60
2023-03-24T18:14:52.138Z,11.50
2023-03-24T18:17:20.345Z,11.60
2023-03-24T18:19:47.314Z,11.50
2023-03-24T18:22:14.151Z,11.50
2023-03-24T18:24:41.020Z,11.40
2023-03-24T18:27:08.047Z,11.40
2023-03-24T18:29:34.922Z,11.30
2023-03-24T18:32:01.834Z,11.30
2023-03-24T18:34:28.723Z,11.30
2023-03-24T18:36:55.547Z,11.20
2023-03-24T18:39:22.552Z,11.10
2023-03-24T18:41:49.847Z,11.00
2023-03-24T18:44:17.403Z,11.10
2023-03-24T18:46:44.237Z,10.90
2023-03-24T18:49:14.606Z,10.80
2023-03-24T18:51:41.538Z,10.80
2023-03-24T18:54:08.417Z,10.70
2023-03-24T18:56:35.285Z,10.70
2023-03-24T18:59:02.242Z,10.60
2023-03-24T19:01:29.177Z,10.50
2023-03-24T19:03:56.110Z,10.40
2023-03-24T19:06:23.006Z,10.30
2023-03-24T19:08:52.360Z,10.40
2023-03-24T19:11:19.353Z,10.30
2023-03-24T19:13:46.319Z,10.20
2023-03-24T19:16:13.194Z,10.20
2023-03-24T19:18:40.356Z,10.20
2023-03-24T19:21:07.993Z,10.10
2023-03-24T19:23:35.479Z,10.10
2023-03-24T19:26:02.952Z,10.10
2023-03-24T19:28:32.076Z,10.00
2023-03-24T19:31:00.790Z,10.00
2023-03-24T19:33:28.214Z,9.90
2023-03-24T19:35:55.145Z,9.90
2023-03-24T19:38:22.398Z,9.90
2023-03-24T19:40:50.173Z,9.80
2023-03-24T19:43:17.371Z,9.90
2023-03-24T19:45:49.622Z,9.90
2023-03-24T19:48:16.760Z,9.80
2023-03-24T19:50:44.895Z,9.80
2023-03-24T19:53:12.287Z,9.70
2023-03-24T19:55:39.153Z,9.70
2023-03-24T19:58:06.298Z,9.70
2023-03-24T20:00:33.279Z,9.60
2023-03-24T20:03:00.321Z,9.60
2023-03-24T20:05:27.883Z,9.50
2023-03-24T20:07:54.768Z,9.50
2023-03-24T20:10:22.375Z,9.50
2023-03-24T20:12:49.220Z,9.40
2023-03-24T20:15:16.434Z,9.40
2023-03-24T20:17:43.341Z,9.40
2023-03-24T20:20:11.387Z,9.40
2023-03-24T20:22:39.255Z,9.40
2023-03-24T20:25:06.526Z,9.30
2023-03-24T20:27:33.349Z,9.20
2023-03-24T20:30:00.268Z,9.10
2023-03-24T20:32:27.201Z,9.10
2023-03-24T20:34:54.085Z,9.00
2023-03-24T20:37:21.025Z,9.10
2023-03-24T20:39:48.271Z,9.00
2023-03-24T20:42:15.573Z,9.00
2023-03-24T20:44:42.695Z,9.00
2023-03-24T20:47:09.866Z,9.00
2023-03-24T20:49:37.265Z,8.90
2023-03-24T20:52:04.433Z,8.90
2023-03-24T20:54:31.389Z,8.80
2023-03-24T20:56:59.144Z,8.90
2023-03-24T20:59:26.294Z,8.80
2023-03-24T21:01:53.371Z,8.90
2023-03-24T21:04:20.341Z,8.90
2023-03-24T21:06:47.256Z,8.80
2023-03-24T21:09:14.092Z,8.70
2023-03-24T21:11:41.004Z,8.70
2023-03-24T21:14:07.890Z,8.70
2023-03-24T21:16:34.814Z,8.70
2023-03-24T21:19:01.830Z,8.60
2023-03-24T21:21:29.531Z,8.60
2023-03-24T21:23:56.469Z,8.60
2023-03-24T21:26:24.151Z,8.60
2023-03-24T21:28:51.129Z,8.50
2023-03-24T21:31:23.292Z,8.50
2023-03-24T21:33:51.244Z,8.50
2023-03-24T21:36:19.145Z,8.40
2023-03-24T21:38:46.467Z,8.50
2023-03-24T21:41:13.399Z,8.50
2023-03-24T21:43:40.444Z,8.40
2023-03-24T21:46:07.880Z,8.40
2023-03-24T21:48:34.881Z,8.40
2023-03-24T21:51:02.074Z,8.40
2023-03-24T21:53:28.931Z,8.20
2023-03-24T21:55:59.652Z,8.30
2023-03-24T21:58:26.506Z,8.30
2023-03-24T22:00:55.410Z,8.20
2023-03-24T22:03:22.344Z,8.10
2023-03-24T22:05:49.507Z,8.20
2023-03-24T22:08:16.473Z,8.20
2023-03-24T22:10:43.334Z,8.10
2023-03-24T22:13:10.212Z,8.10
2023-03-24T22:15:37.888Z,8.10
2023-03-24T22:18:04.959Z,8.00
2023-03-24T22:20:32.121Z,8.00
2023-03-24T22:22:59.447Z,7.90
2023-03-24T22:25:28.714Z,8.00
2023-03-24T22:27:55.756Z,7.90
2023-03-24T22:30:23.347Z,7.90
2023-03-24T22:32:50.266Z,7.80
2023-03-24T22:35:17.310Z,7.80
2023-03-24T22:37:44.233Z,7.80
2023-03-24T22:40:11.108Z,7.90
2023-03-24T22:42:37.973Z,7.90
2023-03-24T22:45:05.637Z,7.90
2023-03-24T22:47:32.493Z,7.90
2023-03-24T22:49:59.403Z,7.90
2023-03-24T22:52:28.017Z,7.90
2023-03-24T22:54:55.074Z,7.80
2023-03-24T22:57:21.936Z,7.80
2023-03-24T22:59:48.869Z,7.80
2023-03-24T23:02:15.801Z,7.80
2023-03-24T23:04:43.030Z,7.70
2023-03-24T23:07:10.072Z,7.80
2023-03-24T23:09:37.152Z,7.70
2023-03-24T23:12:04.647Z,7.80
2023-03-24T23:14:31.640Z,7.60
2023-03-24T23:16:58.505Z,7.60
2023-03-24T23:19:25.838Z,7.60
2023-03-24T23:21:52.994Z,7.60
2023-03-24T23:24:19.986Z,7.60
2023-03-24T23:26:47.074Z,7.60
2023-03-24T23:29:13.968Z,7.60
2023-03-24T23:31:41.023Z,7.60
2023-03-24T23:34:11.264Z,7.60
2023-03-24T23:36:38.342Z,7.60
2023-03-24T23:39:05.494Z,7.60
2023-03-24T23:41:32.324Z,7.60
2023-03-24T23:43:59.227Z,7.50
2023-03-24T23:46:26.278Z,7.50
2023-03-24T23:48:53.436Z,7.50
2023-03-24T23:51:20.452Z,7.50
2023-03-24T23:53:47.430Z,7.50
2023-03-24T23:56:14.351Z,7.40
2023-03-24T23:58:42.465Z,7.50
